Hadley, PA (16130)

1:47 PM EDT on April 21, 2015 (GMT -0400)
Hempfield township | | Change Station
CLOSE
Current Station
Personal Weather Station
Location: Greenville, PA
Elevation: 1168 ft
Nearby Weather Stations
Active Advisory: Wind Advisory Active Notice: Public Information Statement

Elev 1168 ft 41.41 °N, 80.35 °W | Updated 28 seconds ago

Overcast
Overcast
56.1 °F
Feels Like 56.1 °F
N
5.1
Wind Variable Wind from SW
Gusts 7.4 mph

Today
High -- | Low -- °F
--% Chance of Precip.
Yesterday
High -- | Low -- °F
Precip. -- in
6:32 AM 8:07 PM
Waxing Crescent, 11% visible
Pressure 29.64 in
Visibility 10.0 miles
Clouds Scattered Clouds 6000 ft
Mostly Cloudy 8000 ft
Dew Point 24 °F
Humidity 29%
Rainfall 0.00 in
Snow Depth Not available.
UV 7.0 out of 12
Pollen 10.10 out of 12
Air Quality Not available.
Flu Activity Sporadic
METAR KGKJ 211653Z AUTO 23012G30KT 10SM -RA SCT060 BKN080 12/M04 A2964 RMK AO2 PK WND 25032/1556 RAB45 SLP037 P0000 T01171039 TSNO

More Conditions Fewer Conditions

Pressure 29.64 in
Visibility 10.0 miles
Clouds Scattered Clouds 6000 ft
Mostly Cloudy 8000 ft
Dew Point 24 °F
Humidity 29%
Rainfall 0.00 in
Snow Depth Not available.
UV 7.0 out of 12
Pollen 10.10 out of 12
Air Quality Not available.
Flu Activity Sporadic
METAR KGKJ 211653Z AUTO 23012G30KT 10SM -RA SCT060 BKN080 12/M04 A2964 RMK AO2 PK WND 25032/1556 RAB45 SLP037 P0000 T01171039 TSNO

More Conditions Fewer Conditions

10-Day Weather Forecast

Almanac

Astronomy

Apr. 21, 2015 Rise Set
Actual Time
Civil Twilight
Nautical Twilight
Astronomical Twilight
Moon
Length of Visible Light
Length of Day
Tomorrow will be .
, % of the Moon is Illuminated

Today's Extremes

State Highs State Lows

Community

WunderPhotos

Upload Photos

1,815,464 photos uploaded!

WunderBlogs® & News

Nearby

Air Quality

  Air Quality AQ Index Pollutant
Not available.

Snow Depth

Station Depth Elevation

Earthquake Activity

City Distance Mag. Time & Date
Minimum magnitude displayed is 2.5.

Coastal Water Temperatures

Place Temperature

Stations

Nearby Weather Stations

Station Location Temp. Windchill Dew Point Humidity Wind Precip. Elev Updated Type
                   
Wind Advisory
Statement as of 4:06 AM EDT on April 21, 2015

... Wind Advisory in effect from 11 am this morning to 7 PM EDT
this evening...

The National Weather Service in Pittsburgh has issued a Wind
Advisory... which is in effect from 11 am this morning to 7 PM EDT
this evening.

* Winds... southwest 20 to 25 mph with gusts up to 50 mph.

* Period of strongest winds... noon through 400 PM.

* Impacts... scattered tree and power line damage can be expected.
Some minor property damage is possible in the highest gusts.
Travel will be difficult for high profile vehicles.


Precautionary/preparedness actions...

A Wind Advisory is issued when sustained winds of 30 to 39 mph
and/or gusts of 46 to 57 mph are expected. Winds this strong can
make driving difficult... especially for high profile vehicles. Use
extra caution.